Time;durP1;ratioP1;P1;durP2;ratioP2;P2;SDS_P1;SDS_P2;PMS_P1;PMS_P2;Temp;Humidity;BMP_temperature;BMP_pressure;BME280_temperature;BME280_humidity;BME280_pressure;Samples;Min_cycle;Max_cycle;Signal;HPM_P1;HPM_P2
2023/10/20 00:02:15;;;;;;;2.30;2.10;;;7.40;99.90;;;;;;5100960;27;20246;-45
2023/10/20 00:04:44;;;;;;;2.60;2.40;;;7.40;99.90;;;;;;5099989;28;20190;-43
2023/10/20 00:07:11;;;;;;;2.70;2.50;;;7.40;99.90;;;;;;5103990;28;20683;-44
2023/10/20 00:09:38;;;;;;;2.87;2.47;;;7.50;99.90;;;;;;5092410;28;20197;-47
2023/10/20 00:12:05;;;;;;;2.97;2.20;;;7.40;99.90;;;;;;5100913;28;20217;-43
2023/10/20 00:14:32;;;;;;;2.17;2.07;;;7.40;99.90;;;;;;5095089;28;20289;-45
2023/10/20 00:16:59;;;;;;;2.40;2.20;;;7.40;99.90;;;;;;5102324;28;20185;-45
2023/10/20 00:19:26;;;;;;;2.37;2.23;;;7.40;99.90;;;;;;5100725;28;20201;-46
2023/10/20 00:21:55;;;;;;;2.93;2.27;;;7.40;99.90;;;;;;5097676;28;20206;-43
2023/10/20 00:24:22;;;;;;;2.50;2.30;;;7.40;99.90;;;;;;5091623;28;20221;-43
2023/10/20 00:26:50;;;;;;;2.67;2.30;;;7.40;99.90;;;;;;5099826;28;20182;-45
2023/10/20 00:29:17;;;;;;;2.20;2.10;;;7.40;99.90;;;;;;5098634;28;20224;-44
2023/10/20 00:31:44;;;;;;;2.37;2.17;;;7.30;99.90;;;;;;5096696;28;20229;-46
2023/10/20 00:34:11;;;;;;;2.40;2.20;;;7.30;99.90;;;;;;5102044;28;20201;-48
2023/10/20 00:36:38;;;;;;;2.87;2.10;;;7.30;99.90;;;;;;5095845;28;20203;-47
2023/10/20 00:39:07;;;;;;;2.53;1.93;;;7.40;99.90;;;;;;5087793;28;20242;-46
2023/10/20 00:41:35;;;;;;;2.30;2.10;;;7.30;99.90;;;;;;5098813;28;20209;-48
2023/10/20 00:44:03;;;;;;;1.97;1.87;;;7.30;99.90;;;;;;5099420;28;20197;-46
2023/10/20 00:46:30;;;;;;;2.50;2.30;;;7.30;99.90;;;;;;5101581;28;20194;-44
2023/10/20 00:48:57;;;;;;;4.27;2.80;;;7.30;99.90;;;;;;5101134;28;20216;-44
2023/10/20 00:51:25;;;;;;;2.70;2.50;;;7.30;99.90;;;;;;5108013;28;20221;-45
2023/10/20 00:53:52;;;;;;;2.70;2.50;;;7.30;99.90;;;;;;5082032;28;20291;-44
2023/10/20 00:56:21;;;;;;;2.60;2.40;;;7.30;99.90;;;;;;5104935;28;20258;-43
2023/10/20 00:58:48;;;;;;;2.87;2.67;;;7.20;99.90;;;;;;5094910;28;20343;-45
2023/10/20 01:01:15;;;;;;;2.80;2.60;;;7.20;99.90;;;;;;5097353;28;20599;-46
2023/10/20 01:03:42;;;;;;;3.20;3.00;;;7.20;99.90;;;;;;5099946;28;20582;-45
2023/10/20 01:06:10;;;;;;;3.43;3.13;;;7.20;99.90;;;;;;5099956;27;20664;-43
2023/10/20 01:08:37;;;;;;;3.57;3.27;;;7.20;99.90;;;;;;5106502;27;20224;-48
2023/10/20 01:11:05;;;;;;;4.00;3.27;;;7.20;99.90;;;;;;5084774;28;20233;-44
2023/10/20 01:13:33;;;;;;;5.23;3.83;;;7.20;99.90;;;;;;5104116;28;20697;-45
2023/10/20 01:16:02;;;;;;;4.00;3.70;;;7.20;99.90;;;;;;5101786;27;20306;-43
2023/10/20 01:18:30;;;;;;;3.50;3.20;;;7.20;99.90;;;;;;5096536;27;20220;-48
2023/10/20 01:20:57;;;;;;;4.07;3.70;;;7.20;99.90;;;;;;5100567;27;20201;-46
2023/10/20 01:23:24;;;;;;;4.77;4.37;;;7.10;99.90;;;;;;5104998;27;20193;-44
2023/10/20 01:25:53;;;;;;;5.00;3.70;;;7.20;99.90;;;;;;5081475;27;20412;-46
2023/10/20 01:28:19;;;;;;;5.93;4.60;;;7.10;99.90;;;;;;5102622;27;20217;-45
2023/10/20 01:30:47;;;;;;;4.40;4.00;;;7.20;99.90;;;;;;5097430;27;21878;-43
2023/10/20 01:33:15;;;;;;;4.23;3.93;;;7.20;99.90;;;;;;5101575;28;20190;-47
2023/10/20 01:35:42;;;;;;;4.67;4.33;;;7.20;99.90;;;;;;5094314;28;20230;-45
2023/10/20 01:38:09;;;;;;;5.47;4.57;;;7.20;99.90;;;;;;5107919;27;20254;-44
2023/10/20 01:40:36;;;;;;;5.83;4.53;;;7.10;99.90;;;;;;5092061;27;20193;-47
2023/10/20 01:43:04;;;;;;;5.23;4.70;;;7.10;99.90;;;;;;5107166;27;20223;-45
2023/10/20 01:45:31;;;;;;;5.77;4.33;;;7.10;99.90;;;;;;5104370;27;20186;-45
2023/10/20 01:47:58;;;;;;;5.03;4.53;;;7.10;99.90;;;;;;5092724;28;20217;-44
2023/10/20 01:50:26;;;;;;;4.70;4.30;;;7.10;99.90;;;;;;5109124;27;20197;-48
2023/10/20 01:52:54;;;;;;;4.97;4.57;;;7.10;99.90;;;;;;5104930;27;20173;-44
2023/10/20 01:55:22;;;;;;;5.73;4.90;;;7.10;99.90;;;;;;5103436;27;20667;-47
2023/10/20 01:57:50;;;;;;;5.73;5.23;;;7.10;99.90;;;;;;5076682;27;20270;-43
2023/10/20 02:00:19;;;;;;;4.70;4.30;;;7.10;99.90;;;;;;5103377;27;20198;-43
2023/10/20 02:02:46;;;;;;;4.63;4.33;;;7.10;99.90;;;;;;5088654;28;20225;-44
2023/10/20 02:05:13;;;;;;;5.47;4.97;;;7.00;99.90;;;;;;5108522;27;20208;-47
2023/10/20 02:07:40;;;;;;;6.13;5.10;;;7.10;99.90;;;;;;5099108;28;20566;-50
2023/10/20 02:10:08;;;;;;;5.70;5.17;;;7.10;99.90;;;;;;5101661;28;20196;-43
2023/10/20 02:12:35;;;;;;;5.60;4.90;;;7.10;99.90;;;;;;5066993;28;20240;-49
2023/10/20 02:15:03;;;;;;;5.50;5.00;;;7.10;99.90;;;;;;5100313;28;20926;-43
2023/10/20 02:17:32;;;;;;;5.07;4.67;;;7.10;99.90;;;;;;5099139;28;20219;-51
2023/10/20 02:19:59;;;;;;;5.97;5.37;;;7.00;99.90;;;;;;5096247;27;20943;-43
2023/10/20 02:22:26;;;;;;;5.00;4.53;;;7.00;99.90;;;;;;5101102;28;20217;-50
2023/10/20 02:24:53;;;;;;;6.20;4.70;;;7.00;99.90;;;;;;5098360;28;20189;-44
2023/10/20 02:27:20;;;;;;;5.37;4.87;;;7.00;99.90;;;;;;5103699;27;20291;-43
2023/10/20 02:29:47;;;;;;;5.77;5.17;;;7.00;99.90;;;;;;5065804;28;20267;-46
2023/10/20 02:32:14;;;;;;;6.70;4.87;;;7.00;99.90;;;;;;5102965;28;20221;-43
2023/10/20 02:34:42;;;;;;;5.17;4.73;;;7.00;99.90;;;;;;5090871;27;20197;-50
2023/10/20 02:37:11;;;;;;;4.90;4.37;;;6.90;99.90;;;;;;5103288;28;20262;-45
2023/10/20 02:39:38;;;;;;;4.97;4.47;;;6.90;99.90;;;;;;5102564;27;20192;-46
2023/10/20 02:42:05;;;;;;;7.83;5.37;;;6.90;99.90;;;;;;5101679;27;20552;-47
2023/10/20 02:44:33;;;;;;;5.63;5.00;;;6.80;99.90;;;;;;5085111;28;20193;-44
2023/10/20 02:47:00;;;;;;;5.57;5.00;;;6.90;99.90;;;;;;5101201;28;20189;-44
2023/10/20 02:49:27;;;;;;;5.00;4.40;;;6.80;99.90;;;;;;5095571;28;20221;-46
2023/10/20 02:51:55;;;;;;;5.50;5.00;;;6.90;99.90;;;;;;5107455;27;20208;-45
2023/10/20 02:54:22;;;;;;;5.17;4.67;;;6.80;99.90;;;;;;5101381;27;20349;-46
2023/10/20 02:56:49;;;;;;;5.53;4.90;;;6.80;99.90;;;;;;5103578;27;20197;-44
2023/10/20 02:59:16;;;;;;;5.23;4.70;;;6.80;99.90;;;;;;5099872;28;20193;-47
2023/10/20 03:01:44;;;;;;;5.03;4.00;;;6.80;99.90;;;;;;5084360;27;20217;-44
2023/10/20 03:04:10;;;;;;;4.87;4.37;;;6.80;99.90;;;;;;5100012;28;20205;-46
2023/10/20 03:06:37;;;;;;;5.43;4.60;;;6.80;99.90;;;;;;5102262;27;20949;-43
2023/10/20 03:09:06;;;;;;;5.27;4.77;;;6.80;99.90;;;;;;5098838;27;20224;-44
2023/10/20 03:11:32;;;;;;;5.17;4.40;;;6.80;99.90;;;;;;5100312;27;20213;-48
2023/10/20 03:13:59;;;;;;;5.13;4.60;;;6.80;99.90;;;;;;5101851;27;20205;-46
2023/10/20 03:16:26;;;;;;;4.90;4.37;;;6.80;99.90;;;;;;5077063;27;20659;-46
2023/10/20 03:18:53;;;;;;;5.37;4.63;;;6.70;99.90;;;;;;5098851;27;20189;-45
2023/10/20 03:21:21;;;;;;;5.10;4.53;;;6.70;99.90;;;;;;5096719;28;20220;-46
2023/10/20 03:23:48;;;;;;;4.97;4.47;;;6.70;99.90;;;;;;5100952;27;20192;-44
2023/10/20 03:26:16;;;;;;;4.90;4.40;;;6.70;99.90;;;;;;5103483;27;20671;-44
2023/10/20 03:28:44;;;;;;;4.30;4.00;;;6.70;99.90;;;;;;5100454;27;20197;-44
2023/10/20 03:31:11;;;;;;;4.40;4.00;;;6.70;99.90;;;;;;5087312;27;20306;-46
2023/10/20 03:33:38;;;;;;;5.07;4.60;;;6.70;99.90;;;;;;5095509;28;20852;-46
2023/10/20 03:36:05;;;;;;;4.73;4.33;;;6.70;99.90;;;;;;5097090;27;20259;-44
2023/10/20 03:38:33;;;;;;;5.53;5.03;;;6.70;99.90;;;;;;5101151;28;20201;-47
2023/10/20 03:41:07;;;;;;;5.20;4.70;;;6.70;99.90;;;;;;5103105;27;20219;-44
2023/10/20 03:43:36;;;;;;;5.63;5.00;;;6.70;99.90;;;;;;5099015;28;20264;-48
2023/10/20 03:46:04;;;;;;;7.67;4.93;;;6.70;99.90;;;;;;5085958;28;20202;-44
2023/10/20 03:48:34;;;;;;;5.80;5.10;;;6.70;99.90;;;;;;5097530;28;20205;-46
2023/10/20 03:51:04;;;;;;;5.37;4.87;;;6.70;99.90;;;;;;5102455;28;20217;-45
2023/10/20 03:53:41;;;;;;;5.13;4.63;;;6.70;99.90;;;;;;5093548;28;20234;-47
2023/10/20 03:56:09;;;;;;;5.50;4.80;;;6.70;99.90;;;;;;5103339;28;20216;-44
2023/10/20 03:58:37;;;;;;;5.03;4.53;;;6.60;99.90;;;;;;5094860;28;20247;-44
2023/10/20 04:01:06;;;;;;;6.20;4.63;;;6.60;99.90;;;;;;5101724;27;20205;-43
2023/10/20 04:03:33;;;;;;;4.60;4.20;;;6.60;99.90;;;;;;5081395;28;20847;-45
2023/10/20 04:06:01;;;;;;;5.67;3.93;;;6.60;99.90;;;;;;5105165;28;20193;-44
2023/10/20 04:08:28;;;;;;;4.90;4.40;;;6.60;99.90;;;;;;5099830;28;20213;-47
2023/10/20 04:10:57;;;;;;;6.53;4.47;;;6.60;99.90;;;;;;5098529;28;20292;-44
2023/10/20 04:13:24;;;;;;;5.30;4.70;;;6.50;99.90;;;;;;5100749;28;20282;-46
2023/10/20 04:15:53;;;;;;;5.13;4.57;;;6.60;99.90;;;;;;5102618;28;20186;-45
2023/10/20 04:18:20;;;;;;;6.30;4.73;;;6.60;99.90;;;;;;5083619;28;20284;-50
2023/10/20 04:20:48;;;;;;;5.20;4.70;;;6.60;99.90;;;;;;5101152;28;20219;-44
2023/10/20 04:23:16;;;;;;;5.53;4.73;;;6.60;99.90;;;;;;5085270;27;20206;-44
2023/10/20 04:25:52;;;;;;;7.07;5.10;;;6.60;99.90;;;;;;5102378;28;20277;-44
2023/10/20 04:28:20;;;;;;;5.13;4.67;;;6.60;99.90;;;;;;5103941;28;20570;-50
2023/10/20 04:41:58;;;;;;;6.60;4.33;;;6.50;99.90;;;;;;5101945;27;20900;-44
2023/10/20 04:44:58;;;;;;;4.37;3.67;;;6.50;99.90;;;;;;5105137;27;20292;-49
2023/10/20 04:52:58;;;;;;;4.37;3.97;;;6.50;99.90;;;;;;5099490;27;20215;-47
2023/10/20 04:58:24;;;;;;;6.13;4.13;;;6.50;99.90;;;;;;5101638;27;20204;-47
2023/10/20 05:01:03;;;;;;;3.80;3.50;;;6.50;99.90;;;;;;5103720;28;20224;-44
2023/10/20 05:03:45;;;;;;;4.53;3.87;;;6.40;99.90;;;;;;5102890;28;20269;-47
2023/10/20 05:06:22;;;;;;;4.00;3.60;;;6.50;99.90;;;;;;5083886;27;20304;-44
2023/10/20 05:08:49;;;;;;;5.20;3.53;;;6.50;99.90;;;;;;5093375;28;20217;-48
2023/10/20 05:11:17;;;;;;;4.63;3.90;;;6.40;99.90;;;;;;5104560;28;20266;-44
2023/10/20 05:13:44;;;;;;;6.70;4.00;;;6.40;99.90;;;;;;5101415;28;20197;-45
2023/10/20 05:16:12;;;;;;;4.03;3.63;;;6.40;99.90;;;;;;5104776;28;20208;-49
2023/10/20 05:18:39;;;;;;;4.10;3.50;;;6.40;99.90;;;;;;5101103;27;20269;-48
2023/10/20 05:21:06;;;;;;;4.07;3.60;;;6.40;99.90;;;;;;5071354;27;20251;-46
2023/10/20 05:23:36;;;;;;;4.57;4.17;;;6.40;99.90;;;;;;5093563;27;20198;-43
2023/10/20 05:26:03;;;;;;;4.10;3.70;;;6.40;99.90;;;;;;5104762;27;20189;-48
2023/10/20 05:28:30;;;;;;;4.70;4.30;;;6.40;99.90;;;;;;5105791;27;20205;-43
2023/10/20 05:30:58;;;;;;;4.83;4.30;;;6.40;99.90;;;;;;5104806;27;20611;-45
2023/10/20 05:33:26;;;;;;;5.97;3.73;;;6.40;99.90;;;;;;5102660;28;20277;-45
2023/10/20 05:35:53;;;;;;;4.50;3.90;;;6.40;99.90;;;;;;5070021;27;20301;-48
2023/10/20 05:38:20;;;;;;;5.37;4.07;;;6.40;99.90;;;;;;5101025;27;20246;-44
2023/10/20 05:40:58;;;;;;;5.90;4.37;;;6.40;99.90;;;;;;5093863;27;20920;-48
2023/10/20 05:43:26;;;;;;;4.23;3.87;;;6.40;99.90;;;;;;5102498;28;20211;-43
2023/10/20 05:45:53;;;;;;;4.83;4.13;;;6.40;99.90;;;;;;5102786;28;20927;-49
2023/10/20 05:48:20;;;;;;;4.80;4.20;;;6.40;99.90;;;;;;5103380;28;20201;-46
2023/10/20 05:50:47;;;;;;;4.30;3.90;;;6.50;99.90;;;;;;5099007;28;20213;-47
2023/10/20 05:53:14;;;;;;;4.20;3.80;;;6.50;99.90;;;;;;5078654;27;20296;-47
2023/10/20 05:55:41;;;;;;;3.97;3.67;;;6.50;99.90;;;;;;5089948;28;20201;-46
2023/10/20 05:58:09;;;;;;;5.10;3.40;;;6.50;99.90;;;;;;5112654;27;20201;-48
2023/10/20 06:00:37;;;;;;;4.37;3.70;;;6.50;99.90;;;;;;5098426;28;20185;-46
2023/10/20 06:03:05;;;;;;;3.83;3.53;;;6.50;99.90;;;;;;5104092;28;20272;-47
2023/10/20 06:05:32;;;;;;;3.90;3.50;;;6.50;99.90;;;;;;5099659;28;20213;-44
2023/10/20 06:07:59;;;;;;;4.30;3.53;;;6.50;99.90;;;;;;5071077;28;20197;-49
2023/10/20 06:10:26;;;;;;;4.73;3.47;;;6.50;99.90;;;;;;5106001;27;20224;-45
2023/10/20 06:12:55;;;;;;;3.70;3.23;;;6.50;99.90;;;;;;5102153;27;20279;-48
2023/10/20 06:15:23;;;;;;;3.80;3.47;;;6.50;99.90;;;;;;5101008;27;20201;-44
2023/10/20 06:17:51;;;;;;;4.47;4.07;;;6.50;99.90;;;;;;5100994;28;20490;-49
2023/10/20 06:20:19;;;;;;;4.23;3.23;;;6.50;99.90;;;;;;5102197;28;20738;-44
2023/10/20 06:22:46;;;;;;;5.00;4.33;;;6.50;99.90;;;;;;5092942;27;20277;-49
2023/10/20 06:25:13;;;;;;;6.07;4.43;;;6.50;99.90;;;;;;5077064;27;20659;-44
2023/10/20 06:27:42;;;;;;;4.43;4.03;;;6.50;99.90;;;;;;5093816;27;20234;-45
2023/10/20 06:30:19;;;;;;;5.57;4.20;;;6.50;99.90;;;;;;5100498;28;20209;-45
2023/10/20 06:32:56;;;;;;;4.67;3.77;;;6.50;99.90;;;;;;5103170;28;20251;-48
2023/10/20 06:35:32;;;;;;;4.40;3.97;;;6.50;99.90;;;;;;5101269;27;20196;-46
2023/10/20 06:38:11;;;;;;;3.87;3.57;;;6.50;99.90;;;;;;5090500;28;20228;-43
2023/10/20 06:40:40;;;;;;;4.40;4.00;;;6.50;99.90;;;;;;5101535;28;20197;-44
2023/10/20 06:43:06;;;;;;;4.23;3.77;;;6.50;99.90;;;;;;5090846;28;20189;-43
2023/10/20 06:45:34;;;;;;;4.43;3.57;;;6.50;99.90;;;;;;5101783;28;20201;-47
2023/10/20 06:48:02;;;;;;;4.27;3.87;;;6.40;99.90;;;;;;5101609;28;20201;-46
2023/10/20 06:50:29;;;;;;;5.33;3.53;;;6.50;99.90;;;;;;5102651;27;20959;-47
2023/10/20 06:52:56;;;;;;;4.10;3.70;;;6.50;99.90;;;;;;5101044;28;20253;-44
2023/10/20 06:55:24;;;;;;;4.50;3.77;;;6.50;99.90;;;;;;5078854;27;20281;-45
2023/10/20 06:57:51;;;;;;;7.47;4.20;;;6.50;99.90;;;;;;5094642;27;20537;-46
2023/10/20 07:00:20;;;;;;;4.80;4.10;;;6.50;99.90;;;;;;5097850;27;20238;-45
2023/10/20 07:02:47;;;;;;;4.23;3.70;;;6.50;99.90;;;;;;5104184;27;20216;-47
2023/10/20 07:05:17;;;;;;;4.37;3.97;;;6.50;99.90;;;;;;5098550;28;20231;-49
2023/10/20 07:07:43;;;;;;;4.60;4.13;;;6.50;99.90;;;;;;5098398;27;20534;-49
2023/10/20 07:10:11;;;;;;;4.40;4.00;;;6.50;99.90;;;;;;5075865;27;20212;-44
2023/10/20 07:12:38;;;;;;;5.63;5.03;;;6.50;99.90;;;;;;5089875;28;20573;-45
2023/10/20 07:15:06;;;;;;;6.37;5.33;;;6.50;99.90;;;;;;5096870;27;20203;-43
2023/10/20 07:17:34;;;;;;;5.17;4.57;;;6.50;99.90;;;;;;5102893;27;20197;-44
2023/10/20 07:20:04;;;;;;;6.93;5.10;;;6.50;99.90;;;;;;5091058;28;20201;-49
2023/10/20 07:22:32;;;;;;;6.20;5.57;;;6.50;99.90;;;;;;5102994;27;20216;-43
2023/10/20 07:24:59;;;;;;;7.77;5.87;;;6.40;99.90;;;;;;5069037;28;20319;-46
2023/10/20 07:27:26;;;;;;;7.87;5.67;;;6.50;99.90;;;;;;5094141;27;20201;-44
2023/10/20 07:29:53;;;;;;;6.30;5.13;;;6.50;99.90;;;;;;5090899;28;20208;-47
2023/10/20 07:32:22;;;;;;;7.00;6.30;;;6.50;99.90;;;;;;5092013;28;20596;-45
2023/10/20 07:34:49;;;;;;;10.03;6.07;;;6.50;99.90;;;;;;5103170;27;20283;-47
2023/10/20 07:37:16;;;;;;;9.10;7.23;;;6.50;99.90;;;;;;5101885;28;20628;-49
2023/10/20 07:39:45;;;;;;;7.80;6.77;;;6.50;99.90;;;;;;5057344;27;20506;-43
2023/10/20 07:42:11;;;;;;;9.40;6.73;;;6.50;99.90;;;;;;5102406;28;20209;-43
2023/10/20 07:44:40;;;;;;;10.97;7.67;;;6.50;99.90;;;;;;5089480;28;20750;-44
2023/10/20 07:47:07;;;;;;;8.13;7.03;;;6.50;99.90;;;;;;5103293;28;20189;-46
2023/10/20 07:49:33;;;;;;;9.60;7.80;;;6.50;99.90;;;;;;5098829;28;20703;-46
2023/10/20 07:52:01;;;;;;;11.53;7.80;;;6.50;99.90;;;;;;5099428;28;20228;-45
2023/10/20 07:54:27;;;;;;;12.30;8.17;;;6.50;99.90;;;;;;5100250;28;20273;-45
2023/10/20 07:56:56;;;;;;;11.77;7.70;;;6.40;99.90;;;;;;5062855;28;20293;-48
2023/10/20 07:59:22;;;;;;;11.27;7.37;;;6.40;99.90;;;;;;5101128;28;20201;-42
2023/10/20 08:01:49;;;;;;;9.70;7.23;;;6.40;99.90;;;;;;5089604;28;20863;-49
2023/10/20 08:04:17;;;;;;;9.43;6.97;;;6.50;99.90;;;;;;5103173;28;20201;-45
2023/10/20 08:06:44;;;;;;;8.53;7.30;;;6.40;99.90;;;;;;5097106;28;20455;-45
2023/10/20 08:09:12;;;;;;;10.30;7.00;;;6.40;99.90;;;;;;5101444;28;20198;-47
2023/10/20 08:11:39;;;;;;;9.60;7.13;;;6.40;99.90;;;;;;5068821;28;20332;-48
2023/10/20 08:14:07;;;;;;;9.83;7.00;;;6.40;99.90;;;;;;5102741;28;20939;-48
2023/10/20 08:16:34;;;;;;;9.70;7.27;;;6.50;99.90;;;;;;5097765;27;20261;-43
2023/10/20 08:19:01;;;;;;;11.37;7.17;;;6.40;99.90;;;;;;5097305;27;20200;-48
2023/10/20 08:21:29;;;;;;;8.77;6.83;;;6.50;99.90;;;;;;5106193;27;20295;-45
2023/10/20 08:23:57;;;;;;;10.53;7.00;;;6.40;99.90;;;;;;5093353;28;20197;-45
2023/10/20 08:26:25;;;;;;;9.77;6.77;;;6.40;99.90;;;;;;5094929;28;20221;-43
2023/10/20 08:28:51;;;;;;;9.93;6.97;;;6.50;99.90;;;;;;5084420;27;20248;-46
2023/10/20 08:31:21;;;;;;;8.80;6.53;;;6.50;99.90;;;;;;5104666;27;20277;-44
2023/10/20 08:33:51;;;;;;;8.77;6.43;;;6.50;99.90;;;;;;5093316;28;20185;-45
2023/10/20 08:36:20;;;;;;;6.80;6.00;;;6.50;99.90;;;;;;5103915;27;20189;-46
2023/10/20 08:38:49;;;;;;;8.83;6.37;;;6.50;99.90;;;;;;5091604;28;20197;-44
2023/10/20 08:41:17;;;;;;;8.23;6.27;;;6.40;99.90;;;;;;5105449;28;20244;-47
2023/10/20 08:43:45;;;;;;;10.13;7.27;;;6.50;99.90;;;;;;5068951;27;20830;-47
2023/10/20 08:46:13;;;;;;;9.20;6.67;;;6.40;99.90;;;;;;5103780;28;20262;-46
2023/10/20 08:48:42;;;;;;;7.43;5.90;;;6.40;99.90;;;;;;5092365;28;20763;-44
2023/10/20 08:51:11;;;;;;;7.57;5.77;;;6.50;99.90;;;;;;5104494;27;20744;-48
2023/10/20 08:53:39;;;;;;;7.37;6.20;;;6.50;99.90;;;;;;5092719;28;20189;-48
2023/10/20 08:56:08;;;;;;;6.57;5.97;;;6.50;99.90;;;;;;5105596;28;20656;-50
2023/10/20 08:58:36;;;;;;;9.53;6.20;;;6.50;99.90;;;;;;5071061;27;20217;-46
2023/10/20 09:01:04;;;;;;;9.07;5.57;;;6.50;99.90;;;;;;5103896;28;20213;-46
2023/10/20 09:03:39;;;;;;;7.53;4.87;;;6.50;99.90;;;;;;5098127;28;20189;-49
2023/10/20 09:06:10;;;;;;;6.20;5.43;;;6.50;99.90;;;;;;5101939;27;20205;-47
2023/10/20 09:08:37;;;;;;;6.40;5.67;;;6.50;99.90;;;;;;5093458;28;20197;-49
2023/10/20 09:11:07;;;;;;;7.07;6.20;;;6.50;99.90;;;;;;5105208;27;20213;-47
2023/10/20 09:13:36;;;;;;;6.60;4.83;;;6.50;99.90;;;;;;5072320;27;20691;-48
2023/10/20 09:16:07;;;;;;;8.03;5.83;;;6.50;99.90;;;;;;5104865;28;20189;-45
2023/10/20 09:18:41;;;;;;;7.07;5.27;;;6.50;99.90;;;;;;5096314;27;20205;-49
2023/10/20 09:21:09;;;;;;;6.07;5.40;;;6.40;99.90;;;;;;5091971;27;20231;-46
2023/10/20 09:23:36;;;;;;;6.80;5.67;;;6.50;99.90;;;;;;5091622;27;20226;-47
2023/10/20 09:26:04;;;;;;;6.40;5.80;;;6.50;99.90;;;;;;5094819;27;20778;-48
2023/10/20 09:28:31;;;;;;;9.27;6.10;;;6.50;99.90;;;;;;5079948;27;20201;-46
2023/10/20 09:30:59;;;;;;;6.07;5.50;;;6.50;99.90;;;;;;5092200;27;20277;-48
2023/10/20 09:33:26;;;;;;;6.73;5.67;;;6.40;99.90;;;;;;5101685;28;20193;-49
2023/10/20 09:35:53;;;;;;;7.20;6.07;;;6.50;99.90;;;;;;5105818;27;20193;-46
2023/10/20 09:38:26;;;;;;;6.33;5.53;;;6.40;99.90;;;;;;5105061;27;20204;-48
2023/10/20 09:41:03;;;;;;;8.97;5.77;;;6.50;99.90;;;;;;5092403;28;20286;-45
2023/10/20 09:43:32;;;;;;;6.73;5.27;;;6.50;99.90;;;;;;5082065;28;20185;-48
2023/10/20 09:46:11;;;;;;;6.23;5.63;;;6.50;99.90;;;;;;5097440;28;20198;-46
2023/10/20 09:48:40;;;;;;;9.17;5.67;;;6.50;99.90;;;;;;5100677;27;20846;-45
2023/10/20 09:51:08;;;;;;;5.57;5.03;;;6.50;99.90;;;;;;5095143;27;20630;-47
2023/10/20 09:53:37;;;;;;;5.13;4.73;;;6.50;99.90;;;;;;5101787;27;20615;-47
2023/10/20 09:56:06;;;;;;;6.00;5.03;;;6.50;99.90;;;;;;5094756;28;20193;-48
2023/10/20 09:58:34;;;;;;;5.07;4.57;;;6.50;99.90;;;;;;5103458;27;20193;-47
2023/10/20 10:01:02;;;;;;;5.27;4.60;;;6.50;99.90;;;;;;5070524;27;20277;-49
2023/10/20 10:03:34;;;;;;;5.63;4.23;;;6.50;99.90;;;;;;5101791;28;20204;-51
2023/10/20 10:06:02;;;;;;;6.20;4.83;;;6.50;99.90;;;;;;5094755;28;20201;-44
2023/10/20 10:08:31;;;;;;;4.97;4.50;;;6.50;99.90;;;;;;5107813;27;20219;-52
2023/10/20 10:10:59;;;;;;;4.40;3.83;;;6.50;99.90;;;;;;5093254;28;20225;-48
2023/10/20 10:13:34;;;;;;;4.60;4.20;;;6.50;99.90;;;;;;5102475;28;20259;-53
2023/10/20 10:16:13;;;;;;;4.13;3.83;;;6.50;99.90;;;;;;5064471;28;20214;-49
2023/10/20 10:18:47;;;;;;;5.30;3.73;;;6.50;99.90;;;;;;5098526;28;20195;-51
2023/10/20 10:21:29;;;;;;;5.00;3.90;;;6.50;99.90;;;;;;5104239;27;20620;-48
2023/10/20 10:24:15;;;;;;;3.43;3.13;;;6.50;99.90;;;;;;5097160;28;20986;-47
2023/10/20 10:26:50;;;;;;;6.77;3.70;;;6.50;99.90;;;;;;5090536;28;21278;-46
2023/10/20 10:29:17;;;;;;;3.60;3.30;;;6.50;99.90;;;;;;5104071;28;20254;-46
2023/10/20 10:31:44;;;;;;;4.23;3.17;;;6.50;99.90;;;;;;5063657;27;20875;-46
2023/10/20 10:34:11;;;;;;;3.23;2.93;;;6.50;99.90;;;;;;5107221;27;20206;-47
2023/10/20 10:36:46;;;;;;;3.70;3.40;;;6.60;99.90;;;;;;5099574;28;20201;-46
2023/10/20 10:39:27;;;;;;;3.27;2.97;;;6.50;99.90;;;;;;5094703;28;20740;-45
2023/10/20 10:42:01;;;;;;;3.30;3.00;;;6.50;99.90;;;;;;5100293;28;20201;-49
2023/10/20 10:44:33;;;;;;;3.27;2.90;;;6.50;99.90;;;;;;5100956;27;20239;-49
2023/10/20 10:46:59;;;;;;;5.97;3.10;;;6.50;99.90;;;;;;5070257;28;20243;-46
2023/10/20 10:49:26;;;;;;;3.23;2.93;;;6.50;99.90;;;;;;5101740;28;20321;-51
2023/10/20 10:51:53;;;;;;;5.07;3.27;;;6.60;99.90;;;;;;5099570;28;20212;-47
2023/10/20 10:54:20;;;;;;;3.40;3.10;;;6.50;99.90;;;;;;5088208;28;20263;-48
2023/10/20 10:56:48;;;;;;;3.93;3.23;;;6.50;99.90;;;;;;5099598;28;20288;-46
2023/10/20 10:59:19;;;;;;;3.27;3.07;;;6.50;99.90;;;;;;5100957;27;20200;-46
2023/10/20 11:01:47;;;;;;;3.37;3.10;;;6.50;99.90;;;;;;5066629;27;20216;-46
2023/10/20 11:04:14;;;;;;;3.10;2.90;;;6.50;99.90;;;;;;5107060;27;20258;-45
2023/10/20 11:06:43;;;;;;;3.60;3.20;;;6.50;99.90;;;;;;5097540;28;20264;-47
2023/10/20 11:09:11;;;;;;;3.80;3.23;;;6.60;99.90;;;;;;5103282;28;20197;-45
2023/10/20 11:11:45;;;;;;;4.07;3.50;;;6.60;99.90;;;;;;5089670;27;20268;-45
2023/10/20 11:14:12;;;;;;;3.83;3.53;;;6.50;99.90;;;;;;5093496;28;20948;-45
2023/10/20 11:16:40;;;;;;;4.67;3.10;;;6.50;99.90;;;;;;5098587;27;20178;-46
2023/10/20 11:19:07;;;;;;;2.97;2.73;;;6.60;99.90;;;;;;5067882;27;20205;-47
2023/10/20 11:21:45;;;;;;;3.17;2.87;;;6.60;99.90;;;;;;5099309;28;20224;-47
2023/10/20 11:24:12;;;;;;;3.17;2.87;;;6.60;99.90;;;;;;5103173;27;20212;-45
2023/10/20 11:26:39;;;;;;;3.13;2.83;;;6.60;99.90;;;;;;5088808;28;20209;-49
2023/10/20 11:29:08;;;;;;;2.70;2.50;;;6.60;99.90;;;;;;5091571;28;20201;-45
2023/10/20 11:31:37;;;;;;;3.80;2.97;;;6.60;99.90;;;;;;5107439;27;20213;-46
2023/10/20 11:34:05;;;;;;;2.33;2.23;;;6.60;99.90;;;;;;5066148;28;20202;-48
2023/10/20 11:36:32;;;;;;;2.57;2.37;;;6.60;99.90;;;;;;5097627;27;20262;-48
2023/10/20 11:38:58;;;;;;;2.43;2.23;;;6.60;99.90;;;;;;5101787;28;20246;-46
2023/10/20 11:41:25;;;;;;;3.10;2.07;;;6.70;99.90;;;;;;5091429;28;20718;-45
2023/10/20 11:43:52;;;;;;;2.87;2.67;;;6.70;99.90;;;;;;5093464;28;20213;-51
2023/10/20 11:46:19;;;;;;;2.80;2.17;;;6.70;99.90;;;;;;5089977;28;20197;-45
2023/10/20 11:48:47;;;;;;;2.47;2.27;;;6.60;99.90;;;;;;5097751;28;20273;-47
2023/10/20 11:51:15;;;;;;;2.30;2.20;;;6.60;99.90;;;;;;5068313;27;20299;-45
2023/10/20 11:53:42;;;;;;;3.13;2.23;;;6.60;99.90;;;;;;5097930;28;20258;-48
2023/10/20 11:56:10;;;;;;;2.47;2.27;;;6.70;99.90;;;;;;5102070;28;20193;-45
2023/10/20 11:58:37;;;;;;;2.53;2.03;;;6.70;99.90;;;;;;5088932;28;20204;-48
2023/10/20 12:01:04;;;;;;;2.30;2.10;;;6.70;99.90;;;;;;5093238;28;20213;-47
2023/10/20 12:03:31;;;;;;;2.50;2.30;;;6.70;99.90;;;;;;5099272;28;20637;-47
2023/10/20 12:05:58;;;;;;;2.13;2.03;;;6.70;99.90;;;;;;5065436;28;20200;-46
2023/10/20 12:08:28;;;;;;;2.80;2.60;;;6.70;99.90;;;;;;5100761;28;20594;-47
2023/10/20 12:10:56;;;;;;;2.60;1.80;;;6.80;99.90;;;;;;5100147;28;20220;-45
2023/10/20 12:13:23;;;;;;;2.87;2.20;;;6.70;99.90;;;;;;5092669;28;20276;-48
2023/10/20 12:15:50;;;;;;;3.27;2.00;;;6.70;99.90;;;;;;5098508;28;20193;-46
2023/10/20 12:18:17;;;;;;;2.10;2.00;;;6.70;99.90;;;;;;5107008;28;20208;-46
2023/10/20 12:20:44;;;;;;;1.73;1.63;;;6.70;99.90;;;;;;5063850;28;20255;-47
2023/10/20 12:23:10;;;;;;;1.90;1.80;;;6.70;99.90;;;;;;5103571;28;20257;-48
2023/10/20 12:25:38;;;;;;;2.30;1.93;;;6.70;99.90;;;;;;5097651;28;20201;-49
2023/10/20 12:28:06;;;;;;;3.17;2.00;;;6.70;99.90;;;;;;5101120;28;20201;-46
2023/10/20 12:30:33;;;;;;;2.20;1.60;;;6.70;99.90;;;;;;5080317;28;20209;-48
2023/10/20 12:33:00;;;;;;;2.20;2.00;;;6.70;99.90;;;;;;5090514;28;20289;-48
2023/10/20 12:35:27;;;;;;;2.20;2.00;;;6.80;99.90;;;;;;5057236;28;20205;-46
2023/10/20 12:37:54;;;;;;;2.20;1.90;;;6.80;99.90;;;;;;5097727;28;20261;-47
2023/10/20 12:40:21;;;;;;;1.70;1.60;;;6.80;99.90;;;;;;5102139;28;20194;-47
2023/10/20 12:42:50;;;;;;;1.80;1.70;;;6.80;99.90;;;;;;5099519;28;20570;-48
2023/10/20 12:45:17;;;;;;;1.90;1.80;;;6.80;99.90;;;;;;5083092;28;20216;-50
2023/10/20 12:47:44;;;;;;;1.50;1.40;;;6.80;99.90;;;;;;5098837;28;20189;-47
2023/10/20 12:50:11;;;;;;;1.80;1.70;;;6.80;99.90;;;;;;5101296;28;20194;-45
2023/10/20 12:52:39;;;;;;;1.60;1.50;;;6.80;99.90;;;;;;5065246;28;20265;-47
2023/10/20 12:55:06;;;;;;;2.47;1.93;;;6.80;99.90;;;;;;5099530;28;20181;-47
2023/10/20 12:57:33;;;;;;;2.00;1.90;;;6.80;99.90;;;;;;5101391;28;20193;-46
2023/10/20 13:00:01;;;;;;;2.80;1.57;;;6.80;99.90;;;;;;5089362;28;20202;-49
2023/10/20 13:02:28;;;;;;;1.80;1.70;;;6.80;99.90;;;;;;5105989;28;20245;-50
2023/10/20 13:04:55;;;;;;;1.37;1.27;;;6.80;99.90;;;;;;5101224;27;20932;-45
2023/10/20 13:07:24;;;;;;;3.73;1.60;;;6.80;99.90;;;;;;5073592;28;20212;-47
2023/10/20 13:09:50;;;;;;;1.43;1.30;;;6.80;99.90;;;;;;5101602;27;20193;-49
2023/10/20 13:12:17;;;;;;;1.60;1.50;;;6.80;99.90;;;;;;5105155;27;20213;-45
2023/10/20 13:14:44;;;;;;;1.57;1.47;;;6.80;99.90;;;;;;5102275;28;20185;-47
2023/10/20 13:17:12;;;;;;;2.30;1.83;;;6.80;99.90;;;;;;5095358;27;20217;-45
2023/10/20 13:19:39;;;;;;;1.93;1.83;;;6.80;99.90;;;;;;5103897;27;20724;-46
2023/10/20 13:22:07;;;;;;;2.00;1.47;;;6.80;99.90;;;;;;5070056;27;20217;-46
2023/10/20 13:24:34;;;;;;;2.20;1.87;;;6.80;99.90;;;;;;5108072;27;20189;-47